createdAt,value
2018-05-08T00:02:23.884Z,95.90
2018-05-08T00:04:53.066Z,96.30
2018-05-08T00:07:22.016Z,96.30
2018-05-08T00:09:50.328Z,96.60
2018-05-08T00:12:18.609Z,96.60
2018-05-08T00:14:46.670Z,96.00
2018-05-08T00:17:15.102Z,96.40
2018-05-08T00:19:43.015Z,96.50
2018-05-08T00:22:10.888Z,96.40
2018-05-08T00:24:39.048Z,96.60
2018-05-08T00:27:07.432Z,96.80
2018-05-08T00:29:35.720Z,96.70
2018-05-08T00:32:03.884Z,97.10
2018-05-08T00:34:32.068Z,97.10
2018-05-08T00:37:00.214Z,97.30
2018-05-08T00:39:28.205Z,97.30
2018-05-08T00:41:56.375Z,97.30
2018-05-08T00:44:24.347Z,97.10
2018-05-08T00:46:52.837Z,97.40
2018-05-08T00:49:20.685Z,97.50
2018-05-08T00:51:48.879Z,97.50
2018-05-08T00:54:16.898Z,97.50
2018-05-08T00:56:45.108Z,97.60
2018-05-08T00:59:15.185Z,97.80
2018-05-08T01:01:43.092Z,97.70
2018-05-08T01:04:11.974Z,97.70
2018-05-08T01:06:40.066Z,97.70
2018-05-08T01:09:08.327Z,97.90
2018-05-08T01:11:36.499Z,98.10
2018-05-08T01:14:05.386Z,98.20
2018-05-08T01:16:33.735Z,98.20
2018-05-08T01:19:01.839Z,98.20
2018-05-08T01:21:29.998Z,98.40
2018-05-08T01:23:58.290Z,98.30
2018-05-08T01:26:26.577Z,98.20
2018-05-08T01:28:55.964Z,98.30
2018-05-08T01:31:24.334Z,98.40
2018-05-08T01:33:52.492Z,98.30
2018-05-08T01:36:20.672Z,98.30
2018-05-08T01:38:49.575Z,98.40
2018-05-08T01:41:19.501Z,98.30
2018-05-08T01:43:47.636Z,98.40
2018-05-08T01:46:16.267Z,98.50
2018-05-08T01:48:44.513Z,98.50
2018-05-08T01:51:12.702Z,98.50
2018-05-08T01:53:40.771Z,98.60
2018-05-08T01:56:09.165Z,98.70
2018-05-08T01:58:37.434Z,98.80
2018-05-08T02:01:05.967Z,99.00
2018-05-08T02:03:34.691Z,99.00
2018-05-08T02:06:03.659Z,99.00
2018-05-08T02:08:31.738Z,99.10
2018-05-08T02:11:00.056Z,99.30
2018-05-08T02:13:28.722Z,99.50
2018-05-08T02:15:58.219Z,99.50
2018-05-08T02:18:26.713Z,99.50
2018-05-08T02:20:55.176Z,99.40
2018-05-08T02:23:23.154Z,99.40
2018-05-08T02:25:51.360Z,99.40
2018-05-08T02:28:20.008Z,99.60
2018-05-08T02:30:48.076Z,99.60
2018-05-08T02:33:16.078Z,99.70
2018-05-08T02:35:44.730Z,99.70
2018-05-08T02:38:13.304Z,99.70
2018-05-08T02:40:41.600Z,99.70
2018-05-08T02:43:10.067Z,99.80
2018-05-08T02:45:38.572Z,99.90
2018-05-08T02:48:06.614Z,99.90
2018-05-08T02:50:34.797Z,99.90
2018-05-08T02:53:04.146Z,99.90
2018-05-08T02:55:32.485Z,99.90
2018-05-08T02:58:00.650Z,99.90
2018-05-08T03:00:29.030Z,99.90
2018-05-08T03:02:58.027Z,99.90
2018-05-08T03:05:26.187Z,99.90
2018-05-08T03:07:55.681Z,99.90
2018-05-08T03:10:23.867Z,99.90
2018-05-08T03:12:52.009Z,99.90
2018-05-08T03:15:20.562Z,99.90
2018-05-08T03:17:49.823Z,99.90
2018-05-08T03:20:17.997Z,99.90
2018-05-08T03:22:46.192Z,99.90
2018-05-08T03:25:15.304Z,99.90
2018-05-08T03:27:44.241Z,99.90
2018-05-08T03:30:12.429Z,99.90
2018-05-08T03:32:40.628Z,99.90
2018-05-08T03:35:08.678Z,99.90
2018-05-08T03:37:36.745Z,99.90
2018-05-08T03:40:05.102Z,99.90
2018-05-08T03:42:33.392Z,99.90
2018-05-08T03:45:01.574Z,99.90
2018-05-08T03:47:29.940Z,99.90
2018-05-08T03:49:58.121Z,99.90
2018-05-08T03:52:26.697Z,99.90
2018-05-08T03:54:54.788Z,99.90
2018-05-08T03:57:23.277Z,99.90
2018-05-08T03:59:51.233Z,99.90
2018-05-08T04:02:31.410Z,99.90
2018-05-08T04:05:11.949Z,99.90
2018-05-08T04:10:41.782Z,99.90
2018-05-08T04:13:10.141Z,99.90
2018-05-08T04:15:38.338Z,99.90
2018-05-08T04:18:08.656Z,99.90
2018-05-08T04:20:36.825Z,99.90
2018-05-08T04:23:05.606Z,99.90
2018-05-08T04:25:34.381Z,99.90
2018-05-08T04:28:02.591Z,99.90
2018-05-08T04:30:31.040Z,99.90
2018-05-08T04:32:59.763Z,99.90
2018-05-08T04:35:30.840Z,99.90
2018-05-08T04:37:59.987Z,99.90
2018-05-08T04:40:28.355Z,99.90
2018-05-08T04:42:56.955Z,99.90
2018-05-08T04:45:25.951Z,99.90
2018-05-08T04:47:54.338Z,99.80
2018-05-08T04:50:23.701Z,99.90
2018-05-08T04:52:51.968Z,99.60
2018-05-08T04:55:20.486Z,99.80
2018-05-08T04:57:49.169Z,99.20
2018-05-08T05:00:17.457Z,98.90
2018-05-08T05:02:47.013Z,99.40
2018-05-08T05:05:16.132Z,98.60
2018-05-08T05:07:45.024Z,98.60
2018-05-08T05:10:13.408Z,98.60
2018-05-08T05:12:41.701Z,98.30
2018-05-08T05:15:11.132Z,98.00
2018-05-08T05:17:39.253Z,98.00
2018-05-08T05:20:07.953Z,98.00
2018-05-08T05:22:36.657Z,98.00
2018-05-08T05:25:05.645Z,97.00
2018-05-08T05:27:35.141Z,97.70
2018-05-08T05:30:03.572Z,97.70
2018-05-08T05:32:32.105Z,96.80
2018-05-08T05:35:01.356Z,96.40
2018-05-08T05:37:29.638Z,96.20
2018-05-08T05:39:58.165Z,96.30
2018-05-08T05:42:27.554Z,95.50
2018-05-08T05:44:56.207Z,95.40
2018-05-08T05:47:24.741Z,95.30
2018-05-08T05:49:53.977Z,95.60
2018-05-08T05:52:22.406Z,95.50
2018-05-08T05:54:51.815Z,95.50
2018-05-08T05:57:21.097Z,95.10
2018-05-08T05:59:49.279Z,95.10
2018-05-08T06:02:17.774Z,94.90
2018-05-08T06:04:47.055Z,94.90
2018-05-08T06:07:16.549Z,94.90
2018-05-08T06:09:45.046Z,95.20
2018-05-08T06:12:14.453Z,94.70
2018-05-08T06:14:43.643Z,94.30
2018-05-08T06:17:12.323Z,94.30
2018-05-08T06:19:40.603Z,94.70
2018-05-08T06:22:10.002Z,92.40
2018-05-08T06:24:40.283Z,90.20
2018-05-08T06:27:09.020Z,90.20
2018-05-08T06:29:38.123Z,84.70
2018-05-08T06:32:08.395Z,84.20
2018-05-08T06:34:37.227Z,84.20
2018-05-08T06:37:06.763Z,79.10
2018-05-08T06:39:36.352Z,79.00
2018-05-08T06:44:38.317Z,75.40
2018-05-08T06:47:07.723Z,69.90
2018-05-08T06:49:37.596Z,70.30
2018-05-08T06:52:06.891Z,69.50
2018-05-08T06:54:36.540Z,69.70
2018-05-08T06:57:05.836Z,60.50
2018-05-08T06:59:34.851Z,58.90
2018-05-08T07:02:04.123Z,56.30
2018-05-08T07:04:32.397Z,56.20
2018-05-08T07:07:01.164Z,55.90
2018-05-08T07:09:36.942Z,55.30
2018-05-08T07:12:06.083Z,50.30
2018-05-08T07:14:34.411Z,50.90
2018-05-08T07:17:06.285Z,51.70
2018-05-08T07:19:35.356Z,49.30
2018-05-08T07:22:05.931Z,49.20
2018-05-08T07:24:34.283Z,48.20
2018-05-08T07:27:03.803Z,44.30
2018-05-08T07:29:32.651Z,43.00
2018-05-08T07:32:01.035Z,43.00
2018-05-08T07:34:29.323Z,43.60
2018-05-08T07:36:58.525Z,42.30
2018-05-08T07:39:27.419Z,40.30
2018-05-08T07:41:56.714Z,40.40
2018-05-08T07:44:25.081Z,40.30
2018-05-08T07:46:53.065Z,39.30
2018-05-08T07:49:22.038Z,39.50
2018-05-08T07:51:50.806Z,39.50
2018-05-08T07:54:19.422Z,39.80
2018-05-08T07:56:47.824Z,38.50
2018-05-08T07:59:17.069Z,35.80
2018-05-08T08:01:45.820Z,35.70
2018-05-08T08:04:14.346Z,36.00
2018-05-08T08:06:42.819Z,34.90
2018-05-08T08:09:11.680Z,34.50
2018-05-08T08:11:40.400Z,35.20
2018-05-08T08:14:09.710Z,34.60
2018-05-08T08:16:37.927Z,34.60
2018-05-08T08:19:06.527Z,34.50
2018-05-08T08:21:35.371Z,34.60
2018-05-08T08:24:04.627Z,34.60
2018-05-08T08:26:32.892Z,34.60
2018-05-08T08:29:01.499Z,33.00
2018-05-08T08:31:30.202Z,32.10
2018-05-08T08:33:59.032Z,30.80
2018-05-08T08:36:27.078Z,29.90
2018-05-08T08:38:56.043Z,30.20
2018-05-08T08:41:24.444Z,30.10
2018-05-08T08:43:53.196Z,28.30
2018-05-08T08:46:21.794Z,28.50
2018-05-08T08:48:50.095Z,29.70
2018-05-08T08:51:19.478Z,30.20
2018-05-08T08:53:47.956Z,30.20
2018-05-08T08:56:16.565Z,29.90
2018-05-08T08:58:45.687Z,30.50
2018-05-08T09:01:15.147Z,31.40
2018-05-08T09:03:43.447Z,30.60
2018-05-08T09:06:12.805Z,29.40
2018-05-08T09:08:42.266Z,29.70
2018-05-08T09:11:11.593Z,29.60
2018-05-08T09:13:40.003Z,28.60
2018-05-08T09:16:08.716Z,28.70
2018-05-08T09:18:38.103Z,27.70
2018-05-08T09:21:06.796Z,27.70
2018-05-08T09:23:36.271Z,27.40
2018-05-08T09:26:04.863Z,27.40
2018-05-08T09:28:32.941Z,28.40
2018-05-08T09:31:01.200Z,28.70
2018-05-08T09:33:29.902Z,28.50
2018-05-08T09:35:58.294Z,28.60
2018-05-08T09:38:27.573Z,28.00
2018-05-08T09:40:56.312Z,28.00
2018-05-08T09:43:25.458Z,27.60
2018-05-08T09:45:54.057Z,27.60
2018-05-08T09:48:22.398Z,27.50
2018-05-08T09:50:50.504Z,27.40
2018-05-08T09:53:19.600Z,27.60
2018-05-08T09:55:49.205Z,27.20
2018-05-08T09:58:17.734Z,27.20
2018-05-08T10:00:46.238Z,27.20
2018-05-08T10:03:15.069Z,26.80
2018-05-08T10:05:44.860Z,25.00
2018-05-08T10:08:13.450Z,25.00
2018-05-08T10:10:41.482Z,25.60
2018-05-08T10:13:09.505Z,25.20
2018-05-08T10:15:39.588Z,25.00
2018-05-08T10:18:07.730Z,25.00
2018-05-08T10:20:37.647Z,24.00
2018-05-08T10:23:05.857Z,23.90
2018-05-08T10:25:34.255Z,24.90
2018-05-08T10:28:03.547Z,23.90
2018-05-08T10:30:33.007Z,24.40
2018-05-08T10:33:01.488Z,24.30
2018-05-08T10:35:29.799Z,24.20
2018-05-08T10:37:58.241Z,24.50
2018-05-08T10:40:28.087Z,24.80
2018-05-08T10:42:56.816Z,24.10
2018-05-08T10:45:28.272Z,23.00
2018-05-08T10:47:57.330Z,23.40
2018-05-08T10:50:25.618Z,23.30
2018-05-08T10:52:55.317Z,23.50
2018-05-08T10:55:23.692Z,23.50
2018-05-08T10:57:52.972Z,23.70
2018-05-08T11:00:21.663Z,23.70
2018-05-08T11:02:50.220Z,23.10
2018-05-08T11:05:18.723Z,24.40
2018-05-08T11:07:47.057Z,23.50
2018-05-08T11:10:16.305Z,23.50
2018-05-08T11:12:44.661Z,23.50
2018-05-08T11:15:12.988Z,22.60
2018-05-08T11:17:41.753Z,23.70
2018-05-08T11:20:09.841Z,23.70
2018-05-08T11:22:39.093Z,24.60
2018-05-08T11:25:07.307Z,24.60
2018-05-08T11:27:36.395Z,24.50
2018-05-08T11:30:04.764Z,24.50
2018-05-08T11:32:33.521Z,24.60
2018-05-08T11:35:01.984Z,24.50
2018-05-08T11:37:30.529Z,24.70
2018-05-08T11:39:58.893Z,25.00
2018-05-08T11:42:27.617Z,24.40
2018-05-08T11:44:57.135Z,24.60
2018-05-08T11:47:25.729Z,24.70
2018-05-08T11:49:54.102Z,24.60
2018-05-08T11:52:23.160Z,25.10
2018-05-08T11:54:52.365Z,24.70
2018-05-08T11:57:21.763Z,24.60
2018-05-08T11:59:50.860Z,24.40
2018-05-08T12:02:20.056Z,24.30
2018-05-08T12:04:49.017Z,24.10
2018-05-08T12:07:17.295Z,24.00
2018-05-08T12:09:45.695Z,24.00
2018-05-08T12:12:13.992Z,25.00
2018-05-08T12:14:43.074Z,24.10
2018-05-08T12:17:13.239Z,24.20
2018-05-08T12:19:41.662Z,24.20
2018-05-08T12:22:10.099Z,24.10
2018-05-08T12:24:37.998Z,24.60
2018-05-08T12:27:06.758Z,25.20
2018-05-08T12:29:36.293Z,25.20
2018-05-08T12:32:04.575Z,25.00
2018-05-08T12:34:33.382Z,24.80
2018-05-08T12:37:02.676Z,25.20
2018-05-08T12:39:32.065Z,25.10
2018-05-08T12:42:01.611Z,25.00
2018-05-08T12:44:30.309Z,24.90
2018-05-08T12:46:58.933Z,25.40
2018-05-08T12:49:27.601Z,24.90
2018-05-08T12:51:55.993Z,24.50
2018-05-08T12:54:24.928Z,25.20
2018-05-08T12:56:53.383Z,25.10
2018-05-08T12:59:22.778Z,25.50
2018-05-08T13:01:51.462Z,25.40
2018-05-08T13:04:19.530Z,25.60
2018-05-08T13:06:48.010Z,25.60
2018-05-08T13:09:16.462Z,25.70
2018-05-08T13:11:44.778Z,25.40
2018-05-08T13:14:15.607Z,25.30
2018-05-08T13:16:44.729Z,25.40
2018-05-08T13:19:14.010Z,25.60
2018-05-08T13:21:42.602Z,25.60
2018-05-08T13:24:11.682Z,26.30
2018-05-08T13:26:39.834Z,26.30
2018-05-08T13:29:08.059Z,26.80
2018-05-08T13:31:38.201Z,26.20
2018-05-08T13:34:08.571Z,25.90
2018-05-08T13:36:36.881Z,25.90
2018-05-08T13:39:08.091Z,25.10
2018-05-08T13:41:38.490Z,25.00
2018-05-08T13:44:08.139Z,26.90
2018-05-08T13:46:37.515Z,27.50
2018-05-08T13:49:05.732Z,27.50
2018-05-08T13:51:34.795Z,27.30
2018-05-08T13:54:03.675Z,27.30
2018-05-08T13:56:32.572Z,27.70
2018-05-08T13:59:01.281Z,27.50
2018-05-08T14:01:30.250Z,27.40
2018-05-08T14:03:59.744Z,27.40
2018-05-08T14:06:28.295Z,28.30
2018-05-08T14:08:56.730Z,29.00
2018-05-08T14:11:26.234Z,28.30
2018-05-08T14:13:55.834Z,27.90
2018-05-08T14:16:24.217Z,27.90
2018-05-08T14:18:52.610Z,27.50
2018-05-08T14:21:21.578Z,27.10
2018-05-08T14:23:50.601Z,27.10
2018-05-08T14:26:19.882Z,27.50
2018-05-08T14:28:49.498Z,26.60
2018-05-08T14:31:18.786Z,26.90
2018-05-08T14:33:49.098Z,26.90
2018-05-08T14:36:17.178Z,27.30
2018-05-08T14:38:45.642Z,27.90
2018-05-08T14:41:14.171Z,27.70
2018-05-08T14:43:42.499Z,27.40
2018-05-08T14:46:11.195Z,27.90
2018-05-08T14:48:39.434Z,28.20
2018-05-08T14:51:07.578Z,27.40
2018-05-08T14:53:37.162Z,27.90
2018-05-08T14:56:06.731Z,28.00
2018-05-08T14:58:34.810Z,28.10
2018-05-08T15:01:02.903Z,27.90
2018-05-08T15:03:31.083Z,28.40
2018-05-08T15:06:00.410Z,29.00
2018-05-08T15:08:29.063Z,29.00
2018-05-08T15:10:58.938Z,29.20
2018-05-08T15:13:27.258Z,28.60
2018-05-08T15:15:56.954Z,29.20
2018-05-08T15:18:25.970Z,29.20
2018-05-08T15:20:54.442Z,29.60
2018-05-08T15:23:22.778Z,29.10
2018-05-08T15:25:52.122Z,30.10
2018-05-08T15:28:21.210Z,31.30
2018-05-08T15:30:49.370Z,31.30
2018-05-08T15:33:17.530Z,32.30
2018-05-08T15:35:46.153Z,32.20
2018-05-08T15:38:15.530Z,34.60
2018-05-08T15:40:43.722Z,34.50
2018-05-08T15:43:13.018Z,36.20
2018-05-08T15:45:42.201Z,37.80
2018-05-08T15:48:10.493Z,37.00
2018-05-08T15:50:38.955Z,37.10
2018-05-08T15:53:07.529Z,37.30
2018-05-08T15:55:35.930Z,37.20
2018-05-08T15:58:04.122Z,37.60
2018-05-08T16:00:33.418Z,37.50
2018-05-08T16:03:02.553Z,38.00
2018-05-08T16:05:31.786Z,37.90
2018-05-08T16:08:00.398Z,38.90
2018-05-08T16:10:29.802Z,39.20
2018-05-08T16:12:58.777Z,39.90
2018-05-08T16:15:27.161Z,39.90
2018-05-08T16:17:56.011Z,40.70
2018-05-08T16:20:24.523Z,40.60
2018-05-08T16:22:52.923Z,41.20
2018-05-08T16:25:22.090Z,41.30
2018-05-08T16:27:53.962Z,41.30
2018-05-08T16:30:22.602Z,40.90
2018-05-08T16:32:52.009Z,41.40
2018-05-08T16:35:20.650Z,41.60
2018-05-08T16:37:49.113Z,42.00
2018-05-08T16:40:19.802Z,42.40
2018-05-08T16:42:48.414Z,42.40
2018-05-08T16:45:16.571Z,43.10
2018-05-08T16:47:44.883Z,43.50
2018-05-08T16:50:13.883Z,43.70
2018-05-08T16:52:43.994Z,44.80
2018-05-08T16:55:12.366Z,44.10
2018-05-08T16:57:40.537Z,44.50
2018-05-08T17:00:09.131Z,44.90
2018-05-08T17:02:38.212Z,45.30
2018-05-08T17:05:07.093Z,45.30
2018-05-08T17:07:35.492Z,45.10
2018-05-08T17:10:04.127Z,45.40
2018-05-08T17:12:32.448Z,45.90
2018-05-08T17:15:00.795Z,45.90
2018-05-08T17:17:28.896Z,46.20
2018-05-08T17:19:57.147Z,46.60
2018-05-08T17:22:25.741Z,46.60
2018-05-08T17:24:54.039Z,47.10
2018-05-08T17:27:23.037Z,47.20
2018-05-08T17:29:52.643Z,48.40
2018-05-08T17:32:21.016Z,48.00
2018-05-08T17:34:51.625Z,48.20
2018-05-08T17:37:19.615Z,48.10
2018-05-08T17:39:49.317Z,48.70
2018-05-08T17:42:17.889Z,48.60
2018-05-08T17:44:46.289Z,49.20
2018-05-08T17:47:14.548Z,49.70
2018-05-08T17:49:42.734Z,50.60
2018-05-08T17:52:11.787Z,50.40
2018-05-08T17:54:40.305Z,50.80
2018-05-08T17:57:08.582Z,50.30
2018-05-08T17:59:36.656Z,51.10
2018-05-08T18:02:05.553Z,52.60
2018-05-08T18:04:34.821Z,51.70
2018-05-08T18:07:02.952Z,51.70
2018-05-08T18:09:32.061Z,52.90
2018-05-08T18:12:00.395Z,53.10
2018-05-08T18:14:29.696Z,53.90
2018-05-08T18:16:59.086Z,54.50
2018-05-08T18:19:27.888Z,54.00
2018-05-08T18:21:57.068Z,54.80
2018-05-08T18:24:25.527Z,54.80
2018-05-08T18:26:55.482Z,55.10
2018-05-08T18:29:24.673Z,55.80
2018-05-08T18:31:53.741Z,55.70
2018-05-08T18:34:22.369Z,56.40
2018-05-08T18:36:50.518Z,56.20
2018-05-08T18:39:19.032Z,56.30
2018-05-08T18:41:47.273Z,56.80
2018-05-08T18:44:15.759Z,56.80
2018-05-08T18:46:44.530Z,56.80
2018-05-08T18:49:13.052Z,56.90
2018-05-08T18:51:41.908Z,57.30
2018-05-08T18:54:10.181Z,57.30
2018-05-08T18:56:38.469Z,57.80
2018-05-08T18:59:07.380Z,59.10
2018-05-08T19:01:36.357Z,59.70
2018-05-08T19:04:06.325Z,61.00
2018-05-08T19:06:36.965Z,61.50
2018-05-08T19:09:13.213Z,61.50
2018-05-08T19:11:43.742Z,62.10
2018-05-08T19:14:14.245Z,62.60
2018-05-08T19:16:47.157Z,63.00
2018-05-08T19:19:23.288Z,64.60
2018-05-08T19:21:51.450Z,64.60
2018-05-08T19:24:27.077Z,65.90
2018-05-08T19:26:56.502Z,66.90
2018-05-08T19:29:32.349Z,67.90
2018-05-08T19:32:02.424Z,69.00
2018-05-08T19:34:36.165Z,68.90
2018-05-08T19:37:12.189Z,70.30
2018-05-08T19:39:40.774Z,70.30
2018-05-08T19:42:09.285Z,70.90
2018-05-08T19:57:37.957Z,71.10
2018-05-08T20:00:09.525Z,79.50
2018-05-08T20:02:38.165Z,79.40
2018-05-08T20:05:08.645Z,78.20
2018-05-08T20:07:39.253Z,78.80
2018-05-08T20:10:08.934Z,80.70
2018-05-08T20:12:39.414Z,80.50
2018-05-08T20:15:10.213Z,81.90
2018-05-08T20:17:44.629Z,81.00
2018-05-08T20:20:16.389Z,81.70
2018-05-08T20:22:45.367Z,83.00
2018-05-08T20:25:13.962Z,83.70
2018-05-08T20:27:42.982Z,84.10
2018-05-08T20:30:11.861Z,85.00
2018-05-08T20:32:41.259Z,85.80
2018-05-08T20:35:09.447Z,85.70
2018-05-08T20:37:39.221Z,86.00
2018-05-08T20:40:08.456Z,85.90
2018-05-08T20:42:37.765Z,87.00
2018-05-08T20:45:06.677Z,86.90
2018-05-08T20:47:34.891Z,86.90
2018-05-08T20:50:03.314Z,85.90
2018-05-08T20:52:32.631Z,86.80
2018-05-08T20:55:02.293Z,88.90
2018-05-08T20:57:31.013Z,88.80
2018-05-08T20:59:59.578Z,89.40
2018-05-08T21:02:29.570Z,89.70
2018-05-08T21:04:58.781Z,89.70
2018-05-08T21:07:27.056Z,90.10
2018-05-08T21:09:55.620Z,90.20
2018-05-08T21:12:23.795Z,90.60
2018-05-08T21:14:52.191Z,90.30
2018-05-08T21:17:20.545Z,90.50
2018-05-08T21:19:49.036Z,91.00
2018-05-08T21:22:17.924Z,90.40
2018-05-08T21:24:47.221Z,90.40
2018-05-08T21:27:15.617Z,90.40
2018-05-08T21:29:49.393Z,90.10
2018-05-08T21:32:17.802Z,90.40
2018-05-08T21:34:46.573Z,92.60
2018-05-08T21:37:14.963Z,92.50
2018-05-08T21:39:43.606Z,92.80
2018-05-08T21:42:12.133Z,92.70
2018-05-08T21:44:40.892Z,92.70
2018-05-08T21:47:09.385Z,93.10
2018-05-08T21:49:37.917Z,92.60
2018-05-08T21:52:06.385Z,92.40
2018-05-08T21:54:35.461Z,92.30
2018-05-08T21:57:04.851Z,92.50
2018-05-08T21:59:33.179Z,92.50
2018-05-08T22:02:04.466Z,92.70
2018-05-08T22:04:32.739Z,92.70
2018-05-08T22:07:01.414Z,92.50
2018-05-08T22:09:29.889Z,92.60
2018-05-08T22:11:58.786Z,92.60
2018-05-08T22:14:26.857Z,92.70
2018-05-08T22:16:55.115Z,92.90
2018-05-08T22:19:23.345Z,93.00
2018-05-08T22:21:52.372Z,94.00
2018-05-08T22:24:20.399Z,94.00
2018-05-08T22:26:49.179Z,94.50
2018-05-08T22:29:17.444Z,94.50
2018-05-08T22:31:45.757Z,94.50
2018-05-08T22:34:14.576Z,95.00
2018-05-08T22:36:42.807Z,95.00
2018-05-08T22:39:11.778Z,94.80
2018-05-08T22:41:41.133Z,94.70
2018-05-08T22:44:10.073Z,95.00
2018-05-08T22:46:38.371Z,94.80
2018-05-08T22:49:07.453Z,95.40
2018-05-08T22:51:35.731Z,95.30
2018-05-08T22:54:04.061Z,96.40
2018-05-08T22:56:32.255Z,96.80
2018-05-08T22:59:00.451Z,96.20
2018-05-08T23:01:28.929Z,96.10
2018-05-08T23:03:57.345Z,96.00
2018-05-08T23:06:27.728Z,95.90
2018-05-08T23:08:56.005Z,95.80
2018-05-08T23:11:25.823Z,96.10
2018-05-08T23:13:54.182Z,96.10
2018-05-08T23:16:22.466Z,96.30
2018-05-08T23:18:51.646Z,97.00
2018-05-08T23:21:20.060Z,97.30
2018-05-08T23:23:48.335Z,97.70
2018-05-08T23:26:16.585Z,98.10
2018-05-08T23:28:44.970Z,98.50
2018-05-08T23:31:13.133Z,98.60
2018-05-08T23:33:41.515Z,98.70
2018-05-08T23:36:09.807Z,98.70
2018-05-08T23:38:37.974Z,98.50
2018-05-08T23:41:06.041Z,98.80
2018-05-08T23:43:34.100Z,98.90
2018-05-08T23:46:02.400Z,99.20
2018-05-08T23:48:30.635Z,99.40
2018-05-08T23:50:59.056Z,98.90
2018-05-08T23:53:27.322Z,98.90
2018-05-08T23:55:55.193Z,99.10
2018-05-08T23:58:23.658Z,99.20
